sensor_id;sensor_type;location;lat;lon;timestamp;temperature;humidity
18898;DHT22;9581;49.484;8.556;2022-12-07T00:00:00;5.50;99.90
18898;DHT22;9581;49.484;8.556;2022-12-07T00:02:27;5.50;99.90
18898;DHT22;9581;49.484;8.556;2022-12-07T00:04:54;5.50;99.90
18898;DHT22;9581;49.484;8.556;2022-12-07T00:07:22;5.30;99.90
18898;DHT22;9581;49.484;8.556;2022-12-07T00:09:49;5.40;99.90
18898;DHT22;9581;49.484;8.556;2022-12-07T00:12:15;5.50;99.90
18898;DHT22;9581;49.484;8.556;2022-12-07T00:14:42;5.40;99.90
18898;DHT22;9581;49.484;8.556;2022-12-07T00:17:09;5.40;99.90
18898;DHT22;9581;49.484;8.556;2022-12-07T00:19:36;5.50;99.90
18898;DHT22;9581;49.484;8.556;2022-12-07T00:22:02;5.40;99.90
18898;DHT22;9581;49.484;8.556;2022-12-07T00:24:30;5.30;99.90
18898;DHT22;9581;49.484;8.556;2022-12-07T00:26:57;5.30;99.90
18898;DHT22;9581;49.484;8.556;2022-12-07T00:29:24;5.40;99.90
18898;DHT22;9581;49.484;8.556;2022-12-07T00:31:51;5.50;99.90
18898;DHT22;9581;49.484;8.556;2022-12-07T00:34:19;5.50;99.90
18898;DHT22;9581;49.484;8.556;2022-12-07T00:36:46;5.70;99.90
18898;DHT22;9581;49.484;8.556;2022-12-07T00:39:13;5.60;99.90
18898;DHT22;9581;49.484;8.556;2022-12-07T00:41:42;5.40;99.90
18898;DHT22;9581;49.484;8.556;2022-12-07T00:44:08;5.30;99.90
18898;DHT22;9581;49.484;8.556;2022-12-07T00:46:35;5.30;99.90
18898;DHT22;9581;49.484;8.556;2022-12-07T00:49:02;5.30;99.90
18898;DHT22;9581;49.484;8.556;2022-12-07T00:51:29;5.40;99.90
18898;DHT22;9581;49.484;8.556;2022-12-07T00:53:56;5.40;99.90
18898;DHT22;9581;49.484;8.556;2022-12-07T00:56:24;5.20;99.90
18898;DHT22;9581;49.484;8.556;2022-12-07T00:58:53;5.20;99.90
18898;DHT22;9581;49.484;8.556;2022-12-07T01:01:21;5.50;99.90
18898;DHT22;9581;49.484;8.556;2022-12-07T01:03:48;5.70;99.90
18898;DHT22;9581;49.484;8.556;2022-12-07T01:06:15;5.70;99.90
18898;DHT22;9581;49.484;8.556;2022-12-07T01:08:43;5.80;99.90
18898;DHT22;9581;49.484;8.556;2022-12-07T01:11:13;5.80;99.90
18898;DHT22;9581;49.484;8.556;2022-12-07T01:13:41;5.50;99.90
18898;DHT22;9581;49.484;8.556;2022-12-07T01:16:11;5.30;99.90
18898;DHT22;9581;49.484;8.556;2022-12-07T01:18:39;5.40;99.90
18898;DHT22;9581;49.484;8.556;2022-12-07T01:21:07;5.60;99.90
18898;DHT22;9581;49.484;8.556;2022-12-07T01:23:36;5.60;99.90
18898;DHT22;9581;49.484;8.556;2022-12-07T01:26:05;5.70;99.90
18898;DHT22;9581;49.484;8.556;2022-12-07T01:28:33;5.60;99.90
18898;DHT22;9581;49.484;8.556;2022-12-07T01:31:02;5.70;99.90
18898;DHT22;9581;49.484;8.556;2022-12-07T01:33:32;5.70;99.90
18898;DHT22;9581;49.484;8.556;2022-12-07T01:36:02;5.70;99.90
18898;DHT22;9581;49.484;8.556;2022-12-07T01:38:30;5.70;99.90
18898;DHT22;9581;49.484;8.556;2022-12-07T01:40:58;5.70;99.90
18898;DHT22;9581;49.484;8.556;2022-12-07T01:43:27;5.70;99.90
18898;DHT22;9581;49.484;8.556;2022-12-07T01:45:54;5.50;99.90
18898;DHT22;9581;49.484;8.556;2022-12-07T01:48:24;5.70;99.90
18898;DHT22;9581;49.484;8.556;2022-12-07T01:50:56;5.60;99.90
18898;DHT22;9581;49.484;8.556;2022-12-07T01:53:25;5.30;99.90
18898;DHT22;9581;49.484;8.556;2022-12-07T01:55:54;5.20;99.90
18898;DHT22;9581;49.484;8.556;2022-12-07T01:58:22;5.20;99.90
18898;DHT22;9581;49.484;8.556;2022-12-07T02:00:49;5.10;99.90
18898;DHT22;9581;49.484;8.556;2022-12-07T02:03:19;5.10;99.90
18898;DHT22;9581;49.484;8.556;2022-12-07T02:05:49;5.20;99.90
18898;DHT22;9581;49.484;8.556;2022-12-07T02:08:17;5.30;99.90
18898;DHT22;9581;49.484;8.556;2022-12-07T02:10:44;5.30;99.90
18898;DHT22;9581;49.484;8.556;2022-12-07T02:13:13;5.50;99.90
18898;DHT22;9581;49.484;8.556;2022-12-07T02:15:59;5.50;99.90
18898;DHT22;9581;49.484;8.556;2022-12-07T02:18:35;5.50;99.90
18898;DHT22;9581;49.484;8.556;2022-12-07T02:21:10;5.50;99.90
18898;DHT22;9581;49.484;8.556;2022-12-07T02:23:54;5.50;99.90
18898;DHT22;9581;49.484;8.556;2022-12-07T02:29:28;5.50;99.90
18898;DHT22;9581;49.484;8.556;2022-12-07T02:32:03;5.40;99.90
18898;DHT22;9581;49.484;8.556;2022-12-07T02:34:37;5.40;99.90
18898;DHT22;9581;49.484;8.556;2022-12-07T02:37:10;5.30;99.90
18898;DHT22;9581;49.484;8.556;2022-12-07T02:39:43;5.20;99.90
18898;DHT22;9581;49.484;8.556;2022-12-07T02:42:15;4.90;99.90
18898;DHT22;9581;49.484;8.556;2022-12-07T02:44:44;5.00;99.90
18898;DHT22;9581;49.484;8.556;2022-12-07T02:47:15;5.00;99.90
18898;DHT22;9581;49.484;8.556;2022-12-07T02:49:44;5.00;99.90
18898;DHT22;9581;49.484;8.556;2022-12-07T02:52:11;4.70;99.90
18898;DHT22;9581;49.484;8.556;2022-12-07T02:54:38;4.60;99.90
18898;DHT22;9581;49.484;8.556;2022-12-07T02:57:18;4.80;99.90
18898;DHT22;9581;49.484;8.556;2022-12-07T02:59:58;5.00;99.90
18898;DHT22;9581;49.484;8.556;2022-12-07T03:02:32;5.20;99.90
18898;DHT22;9581;49.484;8.556;2022-12-07T03:05:12;5.30;99.90
18898;DHT22;9581;49.484;8.556;2022-12-07T03:07:45;5.30;99.90
18898;DHT22;9581;49.484;8.556;2022-12-07T03:10:18;5.40;99.90
18898;DHT22;9581;49.484;8.556;2022-12-07T03:12:53;5.40;99.90
18898;DHT22;9581;49.484;8.556;2022-12-07T03:15:26;5.40;99.90
18898;DHT22;9581;49.484;8.556;2022-12-07T03:17:54;5.30;99.90
18898;DHT22;9581;49.484;8.556;2022-12-07T03:20:25;5.40;99.90
18898;DHT22;9581;49.484;8.556;2022-12-07T03:22:52;5.30;99.90
18898;DHT22;9581;49.484;8.556;2022-12-07T03:25:21;5.30;99.90
18898;DHT22;9581;49.484;8.556;2022-12-07T03:27:51;5.30;99.90
18898;DHT22;9581;49.484;8.556;2022-12-07T03:30:25;5.40;99.90
18898;DHT22;9581;49.484;8.556;2022-12-07T03:32:58;5.40;99.90
18898;DHT22;9581;49.484;8.556;2022-12-07T03:35:28;5.30;99.90
18898;DHT22;9581;49.484;8.556;2022-12-07T03:38:02;5.30;99.90
18898;DHT22;9581;49.484;8.556;2022-12-07T03:40:34;5.30;99.90
18898;DHT22;9581;49.484;8.556;2022-12-07T03:43:02;5.30;99.90
18898;DHT22;9581;49.484;8.556;2022-12-07T03:45:36;5.30;99.90
18898;DHT22;9581;49.484;8.556;2022-12-07T03:48:08;5.30;99.90
18898;DHT22;9581;49.484;8.556;2022-12-07T03:50:41;5.30;99.90
18898;DHT22;9581;49.484;8.556;2022-12-07T03:53:11;5.30;99.90
18898;DHT22;9581;49.484;8.556;2022-12-07T03:55:42;5.30;99.90
18898;DHT22;9581;49.484;8.556;2022-12-07T03:58:12;5.40;99.90
18898;DHT22;9581;49.484;8.556;2022-12-07T04:00:43;5.30;99.90
18898;DHT22;9581;49.484;8.556;2022-12-07T04:03:10;5.30;99.90
18898;DHT22;9581;49.484;8.556;2022-12-07T04:05:37;5.30;99.90
18898;DHT22;9581;49.484;8.556;2022-12-07T04:08:05;5.30;99.90
18898;DHT22;9581;49.484;8.556;2022-12-07T04:10:32;5.40;99.90
18898;DHT22;9581;49.484;8.556;2022-12-07T04:12:59;5.30;99.90
18898;DHT22;9581;49.484;8.556;2022-12-07T04:15:25;5.40;99.90
18898;DHT22;9581;49.484;8.556;2022-12-07T04:17:53;5.30;99.90
18898;DHT22;9581;49.484;8.556;2022-12-07T04:20:21;5.30;99.90
18898;DHT22;9581;49.484;8.556;2022-12-07T04:22:48;5.30;99.90
18898;DHT22;9581;49.484;8.556;2022-12-07T04:25:15;5.20;99.90
18898;DHT22;9581;49.484;8.556;2022-12-07T04:27:42;5.30;99.90
18898;DHT22;9581;49.484;8.556;2022-12-07T04:30:09;5.20;99.90
18898;DHT22;9581;49.484;8.556;2022-12-07T04:32:36;5.20;99.90
18898;DHT22;9581;49.484;8.556;2022-12-07T04:35:05;5.20;99.90
18898;DHT22;9581;49.484;8.556;2022-12-07T04:37:32;5.20;99.90
18898;DHT22;9581;49.484;8.556;2022-12-07T04:39:59;5.20;99.90
18898;DHT22;9581;49.484;8.556;2022-12-07T04:42:25;5.10;99.90
18898;DHT22;9581;49.484;8.556;2022-12-07T04:44:52;5.00;99.90
18898;DHT22;9581;49.484;8.556;2022-12-07T04:47:19;4.60;99.90
18898;DHT22;9581;49.484;8.556;2022-12-07T04:49:46;4.70;99.90
18898;DHT22;9581;49.484;8.556;2022-12-07T04:52:14;4.80;99.90
18898;DHT22;9581;49.484;8.556;2022-12-07T04:54:41;5.00;99.90
18898;DHT22;9581;49.484;8.556;2022-12-07T04:57:08;5.10;99.90
18898;DHT22;9581;49.484;8.556;2022-12-07T04:59:34;5.10;99.90
18898;DHT22;9581;49.484;8.556;2022-12-07T05:02:01;5.10;99.90
18898;DHT22;9581;49.484;8.556;2022-12-07T05:04:28;5.10;99.90
18898;DHT22;9581;49.484;8.556;2022-12-07T05:06:55;5.00;99.90
18898;DHT22;9581;49.484;8.556;2022-12-07T05:09:23;5.10;99.90
18898;DHT22;9581;49.484;8.556;2022-12-07T05:11:50;5.00;99.90
18898;DHT22;9581;49.484;8.556;2022-12-07T05:14:18;5.00;99.90
18898;DHT22;9581;49.484;8.556;2022-12-07T05:16:46;5.00;99.90
18898;DHT22;9581;49.484;8.556;2022-12-07T05:19:14;4.90;99.90
18898;DHT22;9581;49.484;8.556;2022-12-07T05:21:40;4.90;99.90
18898;DHT22;9581;49.484;8.556;2022-12-07T05:24:09;5.00;99.90
18898;DHT22;9581;49.484;8.556;2022-12-07T05:26:38;4.90;99.90
18898;DHT22;9581;49.484;8.556;2022-12-07T05:29:05;5.00;99.90
18898;DHT22;9581;49.484;8.556;2022-12-07T05:31:32;5.00;99.90
18898;DHT22;9581;49.484;8.556;2022-12-07T05:34:00;5.00;99.90
18898;DHT22;9581;49.484;8.556;2022-12-07T05:36:27;5.10;99.90
18898;DHT22;9581;49.484;8.556;2022-12-07T05:38:56;5.20;99.90
18898;DHT22;9581;49.484;8.556;2022-12-07T05:41:23;5.10;99.90
18898;DHT22;9581;49.484;8.556;2022-12-07T05:44:09;5.20;99.90
18898;DHT22;9581;49.484;8.556;2022-12-07T05:46:36;5.10;99.90
18898;DHT22;9581;49.484;8.556;2022-12-07T05:49:02;5.30;99.90
18898;DHT22;9581;49.484;8.556;2022-12-07T05:51:29;5.20;99.90
18898;DHT22;9581;49.484;8.556;2022-12-07T05:53:56;5.30;99.90
18898;DHT22;9581;49.484;8.556;2022-12-07T05:56:23;5.20;99.90
18898;DHT22;9581;49.484;8.556;2022-12-07T05:58:50;5.20;99.90
18898;DHT22;9581;49.484;8.556;2022-12-07T06:01:35;5.10;99.90
18898;DHT22;9581;49.484;8.556;2022-12-07T06:04:02;5.00;99.90
18898;DHT22;9581;49.484;8.556;2022-12-07T06:06:29;5.10;99.90
18898;DHT22;9581;49.484;8.556;2022-12-07T06:08:56;5.10;99.90
18898;DHT22;9581;49.484;8.556;2022-12-07T06:11:23;5.00;99.90
18898;DHT22;9581;49.484;8.556;2022-12-07T06:14:07;5.00;99.90
18898;DHT22;9581;49.484;8.556;2022-12-07T06:16:35;5.10;99.90
18898;DHT22;9581;49.484;8.556;2022-12-07T06:19:02;5.10;99.90
18898;DHT22;9581;49.484;8.556;2022-12-07T06:21:28;5.10;99.90
18898;DHT22;9581;49.484;8.556;2022-12-07T06:23:55;5.10;99.90
18898;DHT22;9581;49.484;8.556;2022-12-07T06:26:22;5.10;99.90
18898;DHT22;9581;49.484;8.556;2022-12-07T06:28:49;5.10;99.90
18898;DHT22;9581;49.484;8.556;2022-12-07T06:31:16;5.00;99.90
18898;DHT22;9581;49.484;8.556;2022-12-07T06:33:44;5.00;99.90
18898;DHT22;9581;49.484;8.556;2022-12-07T06:36:11;5.10;99.90
18898;DHT22;9581;49.484;8.556;2022-12-07T06:38:38;5.10;99.90
18898;DHT22;9581;49.484;8.556;2022-12-07T06:41:05;5.00;99.90
18898;DHT22;9581;49.484;8.556;2022-12-07T06:43:32;5.10;99.90
18898;DHT22;9581;49.484;8.556;2022-12-07T06:45:59;5.10;99.90
18898;DHT22;9581;49.484;8.556;2022-12-07T06:48:25;5.10;99.90
18898;DHT22;9581;49.484;8.556;2022-12-07T06:50:53;5.20;99.90
18898;DHT22;9581;49.484;8.556;2022-12-07T06:53:20;5.10;99.90
18898;DHT22;9581;49.484;8.556;2022-12-07T06:55:47;5.20;99.90
18898;DHT22;9581;49.484;8.556;2022-12-07T06:58:14;5.10;99.90
18898;DHT22;9581;49.484;8.556;2022-12-07T07:00:40;5.10;99.90
18898;DHT22;9581;49.484;8.556;2022-12-07T07:03:07;5.00;99.90
18898;DHT22;9581;49.484;8.556;2022-12-07T07:05:34;4.80;99.90
18898;DHT22;9581;49.484;8.556;2022-12-07T07:08:02;4.90;99.90
18898;DHT22;9581;49.484;8.556;2022-12-07T07:10:30;5.10;99.90
18898;DHT22;9581;49.484;8.556;2022-12-07T07:12:57;5.20;99.90
18898;DHT22;9581;49.484;8.556;2022-12-07T07:15:23;5.20;99.90
18898;DHT22;9581;49.484;8.556;2022-12-07T07:17:50;5.20;99.90
18898;DHT22;9581;49.484;8.556;2022-12-07T07:20:17;5.30;99.90
18898;DHT22;9581;49.484;8.556;2022-12-07T07:22:44;5.20;99.90
18898;DHT22;9581;49.484;8.556;2022-12-07T07:25:12;5.20;99.90
18898;DHT22;9581;49.484;8.556;2022-12-07T07:27:39;5.10;99.90
18898;DHT22;9581;49.484;8.556;2022-12-07T07:30:07;5.20;99.90
18898;DHT22;9581;49.484;8.556;2022-12-07T07:32:34;5.20;99.90
18898;DHT22;9581;49.484;8.556;2022-12-07T07:35:01;5.20;99.90
18898;DHT22;9581;49.484;8.556;2022-12-07T07:37:28;5.20;99.90
18898;DHT22;9581;49.484;8.556;2022-12-07T07:39:54;5.20;99.90
18898;DHT22;9581;49.484;8.556;2022-12-07T07:42:23;5.30;99.90
18898;DHT22;9581;49.484;8.556;2022-12-07T07:44:49;5.30;99.90
18898;DHT22;9581;49.484;8.556;2022-12-07T07:47:16;5.20;99.90
18898;DHT22;9581;49.484;8.556;2022-12-07T07:49:43;5.20;99.90
18898;DHT22;9581;49.484;8.556;2022-12-07T07:52:10;5.30;99.90
18898;DHT22;9581;49.484;8.556;2022-12-07T07:54:36;5.30;99.90
18898;DHT22;9581;49.484;8.556;2022-12-07T07:57:03;5.10;99.90
18898;DHT22;9581;49.484;8.556;2022-12-07T07:59:31;5.10;99.90
18898;DHT22;9581;49.484;8.556;2022-12-07T08:01:58;5.30;99.90
18898;DHT22;9581;49.484;8.556;2022-12-07T08:04:25;5.30;99.90
18898;DHT22;9581;49.484;8.556;2022-12-07T08:06:52;5.30;99.90
18898;DHT22;9581;49.484;8.556;2022-12-07T08:09:18;5.30;99.90
18898;DHT22;9581;49.484;8.556;2022-12-07T08:11:45;5.20;99.90
18898;DHT22;9581;49.484;8.556;2022-12-07T08:14:12;5.30;99.90
18898;DHT22;9581;49.484;8.556;2022-12-07T08:16:40;5.30;99.90
18898;DHT22;9581;49.484;8.556;2022-12-07T08:19:07;5.30;99.90
18898;DHT22;9581;49.484;8.556;2022-12-07T08:21:34;5.30;99.90
18898;DHT22;9581;49.484;8.556;2022-12-07T08:24:00;5.40;99.90
18898;DHT22;9581;49.484;8.556;2022-12-07T08:26:27;5.30;99.90
18898;DHT22;9581;49.484;8.556;2022-12-07T08:28:54;5.30;99.90
18898;DHT22;9581;49.484;8.556;2022-12-07T08:31:21;5.40;99.90
18898;DHT22;9581;49.484;8.556;2022-12-07T08:33:49;5.40;99.90
18898;DHT22;9581;49.484;8.556;2022-12-07T08:36:17;5.40;99.90
18898;DHT22;9581;49.484;8.556;2022-12-07T08:38:43;5.40;99.90
18898;DHT22;9581;49.484;8.556;2022-12-07T08:41:10;5.40;99.90
18898;DHT22;9581;49.484;8.556;2022-12-07T08:43:37;5.30;99.90
18898;DHT22;9581;49.484;8.556;2022-12-07T08:46:09;5.30;99.90
18898;DHT22;9581;49.484;8.556;2022-12-07T08:48:38;5.40;99.90
18898;DHT22;9581;49.484;8.556;2022-12-07T08:51:08;5.50;99.90
18898;DHT22;9581;49.484;8.556;2022-12-07T08:53:35;5.50;99.90
18898;DHT22;9581;49.484;8.556;2022-12-07T08:56:04;5.50;99.90
18898;DHT22;9581;49.484;8.556;2022-12-07T08:58:31;5.50;99.90
18898;DHT22;9581;49.484;8.556;2022-12-07T09:00:59;5.50;99.90
18898;DHT22;9581;49.484;8.556;2022-12-07T09:03:25;5.50;99.90
18898;DHT22;9581;49.484;8.556;2022-12-07T09:05:52;5.50;99.90
18898;DHT22;9581;49.484;8.556;2022-12-07T09:08:21;5.50;99.90
18898;DHT22;9581;49.484;8.556;2022-12-07T09:10:48;5.50;99.90
18898;DHT22;9581;49.484;8.556;2022-12-07T09:13:15;5.50;99.90
18898;DHT22;9581;49.484;8.556;2022-12-07T09:15:42;5.50;99.90
18898;DHT22;9581;49.484;8.556;2022-12-07T09:18:09;5.50;99.90
18898;DHT22;9581;49.484;8.556;2022-12-07T09:20:35;5.50;99.90
18898;DHT22;9581;49.484;8.556;2022-12-07T09:23:02;5.50;99.90
18898;DHT22;9581;49.484;8.556;2022-12-07T09:25:32;5.50;99.90
18898;DHT22;9581;49.484;8.556;2022-12-07T09:27:59;5.60;99.90
18898;DHT22;9581;49.484;8.556;2022-12-07T09:30:27;5.60;99.90
18898;DHT22;9581;49.484;8.556;2022-12-07T09:32:55;5.70;99.90
18898;DHT22;9581;49.484;8.556;2022-12-07T09:35:22;5.70;99.90
18898;DHT22;9581;49.484;8.556;2022-12-07T09:37:49;5.70;99.90
18898;DHT22;9581;49.484;8.556;2022-12-07T09:40:19;5.70;99.90
18898;DHT22;9581;49.484;8.556;2022-12-07T09:42:51;5.70;99.90
18898;DHT22;9581;49.484;8.556;2022-12-07T09:45:21;5.70;99.90
18898;DHT22;9581;49.484;8.556;2022-12-07T09:47:49;5.80;99.90
18898;DHT22;9581;49.484;8.556;2022-12-07T09:50:18;5.60;99.90
18898;DHT22;9581;49.484;8.556;2022-12-07T09:52:47;5.80;99.90
18898;DHT22;9581;49.484;8.556;2022-12-07T09:55:16;5.90;99.90
18898;DHT22;9581;49.484;8.556;2022-12-07T09:57:45;5.90;99.90
18898;DHT22;9581;49.484;8.556;2022-12-07T10:00:16;6.00;99.90
18898;DHT22;9581;49.484;8.556;2022-12-07T10:02:46;6.00;99.90
18898;DHT22;9581;49.484;8.556;2022-12-07T10:05:15;6.00;99.90
18898;DHT22;9581;49.484;8.556;2022-12-07T10:07:43;6.10;99.90
18898;DHT22;9581;49.484;8.556;2022-12-07T10:10:15;6.20;99.90
18898;DHT22;9581;49.484;8.556;2022-12-07T10:12:56;6.30;99.90
18898;DHT22;9581;49.484;8.556;2022-12-07T10:15:41;6.00;99.90
18898;DHT22;9581;49.484;8.556;2022-12-07T10:18:19;6.00;99.90
18898;DHT22;9581;49.484;8.556;2022-12-07T10:20:46;6.10;99.90
18898;DHT22;9581;49.484;8.556;2022-12-07T10:23:15;6.20;99.90
18898;DHT22;9581;49.484;8.556;2022-12-07T10:25:43;6.30;99.90
18898;DHT22;9581;49.484;8.556;2022-12-07T10:28:15;6.40;99.90
18898;DHT22;9581;49.484;8.556;2022-12-07T10:30:53;6.30;99.90
18898;DHT22;9581;49.484;8.556;2022-12-07T10:33:30;6.30;99.90
18898;DHT22;9581;49.484;8.556;2022-12-07T10:35:58;6.40;99.90
18898;DHT22;9581;49.484;8.556;2022-12-07T10:38:25;6.20;99.90
18898;DHT22;9581;49.484;8.556;2022-12-07T10:41:03;6.30;99.90
18898;DHT22;9581;49.484;8.556;2022-12-07T10:43:30;6.50;99.90
18898;DHT22;9581;49.484;8.556;2022-12-07T10:49:13;6.50;99.90
18898;DHT22;9581;49.484;8.556;2022-12-07T10:51:46;6.50;99.90
18898;DHT22;9581;49.484;8.556;2022-12-07T10:54:16;6.60;99.90
18898;DHT22;9581;49.484;8.556;2022-12-07T10:57:01;6.60;99.90
18898;DHT22;9581;49.484;8.556;2022-12-07T10:59:47;6.30;99.90
18898;DHT22;9581;49.484;8.556;2022-12-07T11:02:26;6.40;99.90
18898;DHT22;9581;49.484;8.556;2022-12-07T11:05:11;6.30;99.90
18898;DHT22;9581;49.484;8.556;2022-12-07T11:07:47;6.10;99.90
18898;DHT22;9581;49.484;8.556;2022-12-07T11:10:20;6.10;99.90
18898;DHT22;9581;49.484;8.556;2022-12-07T11:13:09;6.40;99.90
18898;DHT22;9581;49.484;8.556;2022-12-07T11:15:48;6.50;99.90
18898;DHT22;9581;49.484;8.556;2022-12-07T11:18:24;6.50;99.90
18898;DHT22;9581;49.484;8.556;2022-12-07T11:20:57;6.50;99.90
18898;DHT22;9581;49.484;8.556;2022-12-07T11:23:34;6.70;99.90
18898;DHT22;9581;49.484;8.556;2022-12-07T11:26:12;6.60;99.90
18898;DHT22;9581;49.484;8.556;2022-12-07T11:29:08;6.60;99.90
18898;DHT22;9581;49.484;8.556;2022-12-07T11:31:48;6.70;99.90
18898;DHT22;9581;49.484;8.556;2022-12-07T11:34:26;6.80;99.90
18898;DHT22;9581;49.484;8.556;2022-12-07T11:36:58;6.90;99.90
18898;DHT22;9581;49.484;8.556;2022-12-07T11:39:33;6.80;99.90
18898;DHT22;9581;49.484;8.556;2022-12-07T11:42:06;6.80;99.90
18898;DHT22;9581;49.484;8.556;2022-12-07T11:44:39;6.80;99.90
18898;DHT22;9581;49.484;8.556;2022-12-07T11:47:15;6.70;99.90
18898;DHT22;9581;49.484;8.556;2022-12-07T11:49:50;6.50;99.90
18898;DHT22;9581;49.484;8.556;2022-12-07T11:52:24;6.60;99.90
18898;DHT22;9581;49.484;8.556;2022-12-07T11:54:54;6.50;99.90
18898;DHT22;9581;49.484;8.556;2022-12-07T11:57:25;6.60;99.90
18898;DHT22;9581;49.484;8.556;2022-12-07T11:59:59;6.70;99.90
18898;DHT22;9581;49.484;8.556;2022-12-07T12:02:32;6.90;99.90
18898;DHT22;9581;49.484;8.556;2022-12-07T12:05:13;6.90;99.90
18898;DHT22;9581;49.484;8.556;2022-12-07T12:07:42;7.20;99.90
18898;DHT22;9581;49.484;8.556;2022-12-07T12:10:19;7.20;99.90
18898;DHT22;9581;49.484;8.556;2022-12-07T12:13:12;7.10;99.90
18898;DHT22;9581;49.484;8.556;2022-12-07T12:15:54;7.10;99.90
18898;DHT22;9581;49.484;8.556;2022-12-07T12:18:35;7.20;99.90
18898;DHT22;9581;49.484;8.556;2022-12-07T12:21:09;7.50;99.90
18898;DHT22;9581;49.484;8.556;2022-12-07T12:23:41;7.70;99.90
18898;DHT22;9581;49.484;8.556;2022-12-07T12:26:16;7.80;99.90
18898;DHT22;9581;49.484;8.556;2022-12-07T12:28:52;7.50;99.90
18898;DHT22;9581;49.484;8.556;2022-12-07T12:31:33;7.50;99.90
18898;DHT22;9581;49.484;8.556;2022-12-07T12:34:04;7.00;99.90
18898;DHT22;9581;49.484;8.556;2022-12-07T12:36:46;7.10;99.90
18898;DHT22;9581;49.484;8.556;2022-12-07T12:39:14;6.90;99.90
18898;DHT22;9581;49.484;8.556;2022-12-07T12:41:59;7.00;99.90
18898;DHT22;9581;49.484;8.556;2022-12-07T12:45:18;6.90;99.90
18898;DHT22;9581;49.484;8.556;2022-12-07T12:47:55;6.90;99.90
18898;DHT22;9581;49.484;8.556;2022-12-07T12:50:24;7.10;99.90
18898;DHT22;9581;49.484;8.556;2022-12-07T12:56:25;7.00;99.90
18898;DHT22;9581;49.484;8.556;2022-12-07T13:01:55;6.90;99.90
18898;DHT22;9581;49.484;8.556;2022-12-07T13:04:36;6.80;99.90
18898;DHT22;9581;49.484;8.556;2022-12-07T13:07:08;6.80;99.90
18898;DHT22;9581;49.484;8.556;2022-12-07T13:09:43;6.90;99.90
18898;DHT22;9581;49.484;8.556;2022-12-07T13:12:14;6.70;99.90
18898;DHT22;9581;49.484;8.556;2022-12-07T13:14:51;6.50;99.90
18898;DHT22;9581;49.484;8.556;2022-12-07T13:20:46;6.70;99.90
18898;DHT22;9581;49.484;8.556;2022-12-07T13:23:17;6.70;99.90
18898;DHT22;9581;49.484;8.556;2022-12-07T13:25:51;6.60;99.90
18898;DHT22;9581;49.484;8.556;2022-12-07T13:28:22;6.70;99.90
18898;DHT22;9581;49.484;8.556;2022-12-07T13:31:03;6.70;99.90
18898;DHT22;9581;49.484;8.556;2022-12-07T13:33:34;6.60;99.90
18898;DHT22;9581;49.484;8.556;2022-12-07T13:36:01;6.60;99.90
18898;DHT22;9581;49.484;8.556;2022-12-07T13:38:30;6.70;99.90
18898;DHT22;9581;49.484;8.556;2022-12-07T13:41:04;6.90;99.90
18898;DHT22;9581;49.484;8.556;2022-12-07T13:43:41;6.80;99.90
18898;DHT22;9581;49.484;8.556;2022-12-07T13:46:09;6.70;99.90
18898;DHT22;9581;49.484;8.556;2022-12-07T13:48:44;6.60;99.90
18898;DHT22;9581;49.484;8.556;2022-12-07T13:51:18;6.90;99.90
18898;DHT22;9581;49.484;8.556;2022-12-07T13:53:47;7.00;99.90
18898;DHT22;9581;49.484;8.556;2022-12-07T13:56:15;7.00;99.90
18898;DHT22;9581;49.484;8.556;2022-12-07T13:58:42;6.90;99.90
18898;DHT22;9581;49.484;8.556;2022-12-07T14:01:10;6.80;99.90
18898;DHT22;9581;49.484;8.556;2022-12-07T14:03:39;6.90;99.90
18898;DHT22;9581;49.484;8.556;2022-12-07T14:06:14;6.80;99.90
18898;DHT22;9581;49.484;8.556;2022-12-07T14:08:42;7.00;99.90
18898;DHT22;9581;49.484;8.556;2022-12-07T14:11:17;7.10;99.90
18898;DHT22;9581;49.484;8.556;2022-12-07T14:13:51;6.80;99.90
18898;DHT22;9581;49.484;8.556;2022-12-07T14:16:24;6.90;99.90
18898;DHT22;9581;49.484;8.556;2022-12-07T14:18:53;6.60;99.90
18898;DHT22;9581;49.484;8.556;2022-12-07T14:21:21;6.70;99.90
18898;DHT22;9581;49.484;8.556;2022-12-07T14:24:07;6.70;99.90
18898;DHT22;9581;49.484;8.556;2022-12-07T14:26:37;6.70;99.90
18898;DHT22;9581;49.484;8.556;2022-12-07T14:29:30;6.60;99.90
18898;DHT22;9581;49.484;8.556;2022-12-07T14:32:04;6.70;99.90
18898;DHT22;9581;49.484;8.556;2022-12-07T14:34:40;6.80;99.90
18898;DHT22;9581;49.484;8.556;2022-12-07T14:37:08;6.70;99.90
18898;DHT22;9581;49.484;8.556;2022-12-07T14:39:36;6.80;99.90
18898;DHT22;9581;49.484;8.556;2022-12-07T14:42:04;6.80;99.90
18898;DHT22;9581;49.484;8.556;2022-12-07T14:44:31;6.80;99.90
18898;DHT22;9581;49.484;8.556;2022-12-07T14:46:57;6.70;99.90
18898;DHT22;9581;49.484;8.556;2022-12-07T14:49:24;6.70;99.90
18898;DHT22;9581;49.484;8.556;2022-12-07T14:51:51;6.60;99.90
18898;DHT22;9581;49.484;8.556;2022-12-07T14:54:19;6.40;99.90
18898;DHT22;9581;49.484;8.556;2022-12-07T14:56:47;6.40;99.90
18898;DHT22;9581;49.484;8.556;2022-12-07T14:59:16;6.50;99.90
18898;DHT22;9581;49.484;8.556;2022-12-07T15:01:44;6.50;99.90
18898;DHT22;9581;49.484;8.556;2022-12-07T15:04:11;6.40;99.90
18898;DHT22;9581;49.484;8.556;2022-12-07T15:06:38;6.40;99.90
18898;DHT22;9581;49.484;8.556;2022-12-07T15:09:05;6.40;99.90
18898;DHT22;9581;49.484;8.556;2022-12-07T15:11:32;6.50;99.90
18898;DHT22;9581;49.484;8.556;2022-12-07T15:13:59;6.30;99.90
18898;DHT22;9581;49.484;8.556;2022-12-07T15:16:36;6.40;99.90
18898;DHT22;9581;49.484;8.556;2022-12-07T15:19:05;6.40;99.90
18898;DHT22;9581;49.484;8.556;2022-12-07T15:21:32;6.40;99.90
18898;DHT22;9581;49.484;8.556;2022-12-07T15:23:58;6.50;99.90
18898;DHT22;9581;49.484;8.556;2022-12-07T15:26:25;6.40;99.90
18898;DHT22;9581;49.484;8.556;2022-12-07T15:28:53;6.50;99.90
18898;DHT22;9581;49.484;8.556;2022-12-07T15:31:20;6.50;99.90
18898;DHT22;9581;49.484;8.556;2022-12-07T15:33:48;6.60;99.90
18898;DHT22;9581;49.484;8.556;2022-12-07T15:36:19;6.50;99.90
18898;DHT22;9581;49.484;8.556;2022-12-07T15:38:47;6.40;99.90
18898;DHT22;9581;49.484;8.556;2022-12-07T15:41:14;6.30;99.90
18898;DHT22;9581;49.484;8.556;2022-12-07T15:43:41;6.30;99.90
18898;DHT22;9581;49.484;8.556;2022-12-07T15:46:29;6.30;99.90
18898;DHT22;9581;49.484;8.556;2022-12-07T15:48:57;6.40;99.90
18898;DHT22;9581;49.484;8.556;2022-12-07T15:51:24;6.40;99.90
18898;DHT22;9581;49.484;8.556;2022-12-07T15:53:51;6.20;99.90
18898;DHT22;9581;49.484;8.556;2022-12-07T15:56:18;6.20;99.90
18898;DHT22;9581;49.484;8.556;2022-12-07T15:58:45;6.30;99.90
18898;DHT22;9581;49.484;8.556;2022-12-07T16:01:13;6.40;99.90
18898;DHT22;9581;49.484;8.556;2022-12-07T16:03:40;6.20;99.90
18898;DHT22;9581;49.484;8.556;2022-12-07T16:06:08;6.30;99.90
18898;DHT22;9581;49.484;8.556;2022-12-07T16:08:35;6.30;99.90
18898;DHT22;9581;49.484;8.556;2022-12-07T16:11:04;6.30;99.90
18898;DHT22;9581;49.484;8.556;2022-12-07T16:13:31;6.30;99.90
18898;DHT22;9581;49.484;8.556;2022-12-07T16:16:02;6.20;99.90
18898;DHT22;9581;49.484;8.556;2022-12-07T16:18:29;6.20;99.90
18898;DHT22;9581;49.484;8.556;2022-12-07T16:20:56;6.10;99.90
18898;DHT22;9581;49.484;8.556;2022-12-07T16:23:24;6.10;99.90
18898;DHT22;9581;49.484;8.556;2022-12-07T16:25:51;6.10;99.90
18898;DHT22;9581;49.484;8.556;2022-12-07T16:28:18;6.20;99.90
18898;DHT22;9581;49.484;8.556;2022-12-07T16:30:44;6.10;99.90
18898;DHT22;9581;49.484;8.556;2022-12-07T16:33:11;6.00;99.90
18898;DHT22;9581;49.484;8.556;2022-12-07T16:35:38;6.20;99.90